createdAt,value
2022-12-05T00:04:15.627Z,106.55
2022-12-05T00:09:17.573Z,109.18
2022-12-05T00:14:19.413Z,113.25
2022-12-05T00:19:21.286Z,119.35
2022-12-05T00:24:23.308Z,115.28
2022-12-05T00:29:25.117Z,106.78
2022-12-05T00:34:26.952Z,119.90
2022-12-05T00:39:28.866Z,131.48
2022-12-05T00:44:31.298Z,123.38
2022-12-05T00:49:33.296Z,113.13
2022-12-05T00:54:35.053Z,107.75
2022-12-05T00:59:36.856Z,108.50
2022-12-05T01:04:38.777Z,100.85
2022-12-05T01:09:40.791Z,98.60
2022-12-05T01:14:42.599Z,126.20
2022-12-05T01:19:44.385Z,120.72
2022-12-05T01:24:46.132Z,126.28
2022-12-05T01:29:47.857Z,100.13
2022-12-05T01:34:49.628Z,112.53
2022-12-05T01:39:51.346Z,92.82
2022-12-05T01:45:02.725Z,107.82
2022-12-05T01:50:05.489Z,103.07
2022-12-05T01:55:12.019Z,96.97
2022-12-05T02:00:18.390Z,105.55
2022-12-05T02:05:30.149Z,112.90
2022-12-05T02:10:37.575Z,100.53
2022-12-05T02:15:48.321Z,102.50
2022-12-05T02:20:55.803Z,106.78
2022-12-05T02:26:31.538Z,104.10
2022-12-05T02:32:21.079Z,101.57
2022-12-05T02:37:49.064Z,100.15
2022-12-05T02:43:05.039Z,104.55
2022-12-05T02:48:07.313Z,86.47
2022-12-05T02:53:13.205Z,92.35
2022-12-05T02:58:21.704Z,85.85
2022-12-05T03:03:23.733Z,100.38
2022-12-05T03:08:31.548Z,95.63
2022-12-05T03:13:45.849Z,93.72
2022-12-05T03:19:12.669Z,94.47
2022-12-05T03:24:15.033Z,83.65
2022-12-05T03:29:25.412Z,85.60
2022-12-05T03:34:57.645Z,78.38
2022-12-05T03:40:07.512Z,77.18
2022-12-05T03:45:16.720Z,70.30
2022-12-05T03:50:26.895Z,78.28
2022-12-05T03:55:33.543Z,65.78
2022-12-05T04:00:40.053Z,73.43
2022-12-05T04:05:47.697Z,56.75
2022-12-05T04:10:53.342Z,60.70
2022-12-05T04:16:54.715Z,70.07
2022-12-05T04:21:57.611Z,56.40
2022-12-05T04:27:40.786Z,57.40
2022-12-05T04:32:51.561Z,50.35
2022-12-05T04:38:00.444Z,53.10
2022-12-05T04:43:04.262Z,51.05
2022-12-05T04:48:15.386Z,51.90
2022-12-05T04:53:18.317Z,43.58
2022-12-05T04:58:23.277Z,54.60
2022-12-05T05:03:58.322Z,45.38
2022-12-05T05:09:00.070Z,46.22
2022-12-05T05:14:02.571Z,43.22
2022-12-05T05:19:05.486Z,45.13
2022-12-05T05:24:08.207Z,41.67
2022-12-05T05:29:11.089Z,42.80
2022-12-05T05:34:15.888Z,45.35
2022-12-05T05:39:17.687Z,40.95
2022-12-05T05:44:19.374Z,40.50
2022-12-05T05:49:21.117Z,47.45
2022-12-05T05:54:22.848Z,37.58
2022-12-05T05:59:24.690Z,40.45
2022-12-05T06:04:26.450Z,37.78
2022-12-05T06:09:28.265Z,40.53
2022-12-05T06:14:30.014Z,46.20
2022-12-05T06:19:31.784Z,44.75
2022-12-05T06:24:33.529Z,40.40
2022-12-05T06:29:35.792Z,40.05
2022-12-05T06:34:37.774Z,43.78
2022-12-05T06:39:39.530Z,38.42
2022-12-05T06:44:41.291Z,38.58
2022-12-05T06:49:43.102Z,39.65
2022-12-05T06:54:46.713Z,44.55
2022-12-05T06:59:48.536Z,43.55
2022-12-05T07:04:50.463Z,44.28
2022-12-05T07:09:52.302Z,39.80
2022-12-05T07:14:54.158Z,43.63
2022-12-05T07:19:56.569Z,45.80
2022-12-05T07:24:58.648Z,40.13
2022-12-05T07:30:01.070Z,42.70
2022-12-05T07:35:03.149Z,42.80
2022-12-05T07:40:05.625Z,40.83
2022-12-05T07:45:08.215Z,43.35
2022-12-05T07:50:10.344Z,43.88
2022-12-05T07:55:12.210Z,42.13
2022-12-05T08:00:14.760Z,38.17
2022-12-05T08:05:16.848Z,41.78
2022-12-05T08:10:18.654Z,39.28
2022-12-05T08:15:20.486Z,40.55
2022-12-05T08:20:22.369Z,45.40
2022-12-05T08:25:24.170Z,37.97
2022-12-05T08:30:25.972Z,45.15
2022-12-05T08:35:27.778Z,41.00
2022-12-05T08:40:29.617Z,41.60
2022-12-05T08:45:31.429Z,37.45
2022-12-05T08:50:33.203Z,38.13
2022-12-05T08:55:35.766Z,40.38
2022-12-05T09:00:37.976Z,38.13
2022-12-05T09:05:39.970Z,38.78
2022-12-05T09:10:41.859Z,38.78
2022-12-05T09:15:43.628Z,38.03
2022-12-05T09:20:45.558Z,37.92
2022-12-05T09:25:56.305Z,40.72
2022-12-05T09:31:03.550Z,43.17
2022-12-05T09:36:12.289Z,44.65
2022-12-05T09:42:10.172Z,43.20
2022-12-05T09:47:34.154Z,43.50
2022-12-05T09:52:39.785Z,43.38
2022-12-05T09:57:50.173Z,51.15
2022-12-05T10:03:00.380Z,48.67
2022-12-05T10:08:08.389Z,53.03
2022-12-05T10:13:26.229Z,50.78
2022-12-05T10:18:33.303Z,62.50
2022-12-05T10:23:57.612Z,59.55
2022-12-05T10:29:03.228Z,59.97
2022-12-05T10:34:29.498Z,64.32
2022-12-05T10:39:31.250Z,60.20
2022-12-05T10:44:34.110Z,58.75
2022-12-05T10:49:38.473Z,67.28
2022-12-05T10:54:59.677Z,68.63
2022-12-05T11:00:15.346Z,71.82
2022-12-05T11:05:28.497Z,74.78
2022-12-05T11:10:37.676Z,77.57
2022-12-05T11:15:49.386Z,73.50
2022-12-05T11:20:54.373Z,67.18
2022-12-05T11:25:57.805Z,72.40
2022-12-05T11:31:26.057Z,64.28
2022-12-05T11:36:37.974Z,73.80
2022-12-05T11:41:59.346Z,68.97
2022-12-05T11:47:25.154Z,66.43
2022-12-05T11:52:48.601Z,62.17
2022-12-05T11:58:08.738Z,60.92
2022-12-05T12:03:13.544Z,60.08
2022-12-05T12:08:56.318Z,62.55
2022-12-05T12:14:13.188Z,56.97
2022-12-05T12:19:17.754Z,45.53
2022-12-05T12:24:19.427Z,43.67
2022-12-05T12:29:48.599Z,41.90
2022-12-05T12:35:28.297Z,36.53
2022-12-05T12:41:08.430Z,39.95
2022-12-05T12:46:42.812Z,41.15
2022-12-05T12:51:54.711Z,38.35
2022-12-05T12:57:09.330Z,44.92
2022-12-05T13:02:25.077Z,39.78
2022-12-05T13:07:33.904Z,39.67
2022-12-05T13:12:39.181Z,42.08
2022-12-05T13:17:45.531Z,37.50
2022-12-05T13:22:50.498Z,41.35
2022-12-05T13:27:59.138Z,38.75
2022-12-05T13:33:08.795Z,40.65
2022-12-05T13:38:52.663Z,39.35
2022-12-05T13:44:05.727Z,39.63
2022-12-05T13:49:28.949Z,36.35
2022-12-05T13:54:32.431Z,33.22
2022-12-05T14:00:08.213Z,43.92
2022-12-05T14:05:18.986Z,46.95
2022-12-05T14:10:28.716Z,45.97
2022-12-05T14:15:36.886Z,50.85
2022-12-05T14:21:01.114Z,47.47
2022-12-05T14:26:15.501Z,43.78
2022-12-05T14:32:04.492Z,41.92
2022-12-05T14:37:15.531Z,47.13
2022-12-05T14:42:22.759Z,59.15
2022-12-05T14:47:31.829Z,48.77
2022-12-05T14:52:34.915Z,43.35
2022-12-05T14:57:46.918Z,43.13
2022-12-05T15:02:51.378Z,45.58
2022-12-05T15:07:54.946Z,44.13
2022-12-05T15:13:02.467Z,41.97
2022-12-05T15:18:31.440Z,37.03
2022-12-05T15:23:57.841Z,44.15
2022-12-05T15:29:13.324Z,43.42
2022-12-05T15:34:27.350Z,41.10
2022-12-05T15:39:29.281Z,41.63
2022-12-05T15:44:37.418Z,46.15
2022-12-05T15:49:39.869Z,47.63
2022-12-05T15:54:43.334Z,50.55
2022-12-05T15:59:55.879Z,45.10
2022-12-05T16:04:59.990Z,50.80
2022-12-05T16:10:02.558Z,37.85
2022-12-05T16:15:13.532Z,49.55
2022-12-05T16:20:18.388Z,39.05
2022-12-05T16:25:26.663Z,41.00
2022-12-05T16:35:34.399Z,38.67
2022-12-05T16:40:36.864Z,38.70
2022-12-05T16:45:46.633Z,37.63
2022-12-05T16:50:50.147Z,45.70
2022-12-05T16:55:52.541Z,37.55
2022-12-05T17:01:05.176Z,40.00
2022-12-05T17:06:10.037Z,43.20
2022-12-05T17:11:18.505Z,39.72
2022-12-05T17:16:21.644Z,40.50
2022-12-05T17:21:26.775Z,40.47
2022-12-05T17:26:28.562Z,35.55
2022-12-05T17:31:30.865Z,37.25
2022-12-05T17:36:32.599Z,41.25
2022-12-05T17:41:34.558Z,34.67
2022-12-05T17:46:36.365Z,41.28
2022-12-05T17:51:58.583Z,34.90
2022-12-05T17:57:00.331Z,42.33
2022-12-05T18:02:02.154Z,37.78
2022-12-05T18:07:04.085Z,41.08
2022-12-05T18:12:06.302Z,35.60
2022-12-05T18:17:08.093Z,36.72
2022-12-05T18:22:09.817Z,39.83
2022-12-05T18:27:11.968Z,38.40
2022-12-05T18:32:14.015Z,43.17
2022-12-05T18:37:18.284Z,42.00
2022-12-05T18:43:07.043Z,46.15
2022-12-05T18:48:37.723Z,42.40
2022-12-05T18:53:30.538Z,42.03
2022-12-05T18:58:32.476Z,43.53
2022-12-05T19:03:35.132Z,47.67
2022-12-05T19:08:36.869Z,36.28
2022-12-05T19:13:38.736Z,44.22
2022-12-05T19:18:41.156Z,45.38
2022-12-05T19:23:42.988Z,50.88
2022-12-05T19:28:44.773Z,41.08
2022-12-05T19:33:49.457Z,47.42
2022-12-05T19:38:53.281Z,48.97
2022-12-05T19:43:58.351Z,54.85
2022-12-05T19:49:02.986Z,57.55
2022-12-05T19:54:06.506Z,50.72
2022-12-05T19:59:08.395Z,52.63
2022-12-05T20:04:12.789Z,53.13
2022-12-05T20:09:16.721Z,45.72
2022-12-05T20:14:19.255Z,49.78
2022-12-05T20:19:21.440Z,52.22
2022-12-05T20:24:23.178Z,59.63
2022-12-05T20:29:24.867Z,61.05
2022-12-05T20:34:26.734Z,58.28
2022-12-05T20:39:29.699Z,56.75
2022-12-05T20:44:31.473Z,55.17
2022-12-05T20:49:33.184Z,59.47
2022-12-05T20:54:34.958Z,52.17
2022-12-05T20:59:36.791Z,54.88
2022-12-05T21:04:40.956Z,49.20
2022-12-05T21:09:42.811Z,50.50
2022-12-05T21:14:44.629Z,45.78
2022-12-05T21:19:46.423Z,37.80
2022-12-05T21:24:48.157Z,39.25
2022-12-05T21:29:49.878Z,40.33
2022-12-05T21:34:51.662Z,35.45
2022-12-05T21:39:53.361Z,35.33
2022-12-05T21:44:55.150Z,33.42
2022-12-05T21:49:57.349Z,31.60
2022-12-05T21:54:59.429Z,37.42
2022-12-05T22:00:01.388Z,34.60
2022-12-05T22:05:03.859Z,34.53
2022-12-05T22:10:06.335Z,48.35
2022-12-05T22:15:09.046Z,36.10
2022-12-05T22:20:10.892Z,36.28
2022-12-05T22:25:12.814Z,40.08
2022-12-05T22:30:14.698Z,34.47
2022-12-05T22:35:16.671Z,38.97
2022-12-05T22:40:18.485Z,36.55
2022-12-05T22:45:20.202Z,30.65
2022-12-05T22:50:21.954Z,33.88
2022-12-05T22:55:23.660Z,35.72
2022-12-05T23:00:25.377Z,31.13
2022-12-05T23:05:27.118Z,34.25
2022-12-05T23:10:28.867Z,33.42
2022-12-05T23:15:30.799Z,33.97
2022-12-05T23:20:33.158Z,34.35
2022-12-05T23:25:34.968Z,34.67
2022-12-05T23:30:36.737Z,35.55
2022-12-05T23:35:38.482Z,35.65
2022-12-05T23:40:40.217Z,34.20
2022-12-05T23:45:41.957Z,38.65
2022-12-05T23:50:43.721Z,33.53
2022-12-05T23:55:45.454Z,32.22
